createdAt,value
2022-08-05T00:01:36.390Z,3.55
2022-08-05T00:04:17.089Z,3.15
2022-08-05T00:06:44.148Z,3.67
2022-08-05T00:09:12.618Z,3.83
2022-08-05T00:11:49.159Z,4.00
2022-08-05T00:14:22.712Z,3.72
2022-08-05T00:16:55.764Z,3.80
2022-08-05T00:19:23.316Z,4.03
2022-08-05T00:21:51.741Z,3.70
2022-08-05T00:24:24.675Z,4.22
2022-08-05T00:26:58.614Z,3.40
2022-08-05T00:29:26.040Z,4.22
2022-08-05T00:32:12.410Z,4.00
2022-08-05T00:35:03.455Z,4.63
2022-08-05T00:37:50.695Z,4.45
2022-08-05T00:40:17.850Z,4.78
2022-08-05T00:42:54.818Z,4.82
2022-08-05T00:45:28.248Z,5.18
2022-08-05T00:48:09.279Z,5.25
2022-08-05T00:50:37.326Z,5.30
2022-08-05T00:53:16.070Z,5.25
2022-08-05T00:55:50.796Z,5.50
2022-08-05T00:58:19.141Z,5.18
2022-08-05T01:00:47.357Z,4.95
2022-08-05T01:03:22.899Z,4.78
2022-08-05T01:05:54.510Z,5.35
2022-08-05T01:08:41.597Z,4.93
2022-08-05T01:11:22.525Z,5.78
2022-08-05T01:14:09.416Z,5.82
2022-08-05T01:17:00.463Z,5.20
2022-08-05T01:19:57.058Z,4.80
2022-08-05T01:22:46.844Z,4.97
2022-08-05T01:25:53.792Z,5.03
2022-08-05T01:28:39.419Z,4.40
2022-08-05T01:31:27.245Z,4.80
2022-08-05T01:34:13.005Z,4.90
2022-08-05T01:36:46.974Z,5.07
2022-08-05T01:39:16.283Z,5.15
2022-08-05T01:42:03.452Z,5.20
2022-08-05T01:44:34.452Z,5.57
2022-08-05T01:47:02.609Z,5.90
2022-08-05T01:50:01.494Z,6.03
2022-08-05T01:52:21.456Z,5.65
2022-08-05T01:54:58.427Z,5.47
2022-08-05T01:58:09.845Z,5.72
2022-08-05T02:00:18.876Z,5.10
2022-08-05T02:02:53.708Z,5.20
2022-08-05T02:05:23.714Z,5.57
2022-08-05T02:07:59.828Z,5.25
2022-08-05T02:10:32.578Z,5.93
2022-08-05T02:13:27.754Z,6.15
2022-08-05T02:16:16.307Z,6.97
2022-08-05T02:18:50.940Z,6.53
2022-08-05T02:21:20.344Z,6.55
2022-08-05T02:23:50.656Z,6.43
2022-08-05T02:26:23.206Z,6.90
2022-08-05T02:28:55.297Z,6.55
2022-08-05T02:31:28.308Z,6.68
2022-08-05T02:33:58.652Z,6.82
2022-08-05T02:36:27.254Z,6.47
2022-08-05T02:38:55.935Z,6.65
2022-08-05T02:41:28.958Z,7.15
2022-08-05T02:44:11.984Z,6.85
2022-08-05T02:46:53.179Z,7.22
2022-08-05T02:49:35.768Z,6.63
2022-08-05T02:52:06.414Z,6.70
2022-08-05T02:54:37.037Z,6.15
2022-08-05T02:57:10.320Z,6.93
2022-08-05T02:59:55.736Z,6.68
2022-08-05T03:02:29.425Z,6.80
2022-08-05T03:04:57.695Z,7.03
2022-08-05T03:07:48.519Z,6.00
2022-08-05T03:10:15.677Z,5.63
2022-08-05T03:12:49.506Z,5.13
2022-08-05T03:15:18.682Z,5.22
2022-08-05T03:17:45.348Z,5.95
2022-08-05T03:20:13.433Z,5.72
2022-08-05T03:22:44.038Z,5.70
2022-08-05T03:25:33.476Z,5.75
2022-08-05T03:28:07.208Z,5.97
2022-08-05T03:30:35.816Z,5.07
2022-08-05T03:33:03.859Z,5.53
2022-08-05T03:35:41.130Z,6.07
2022-08-05T03:38:11.100Z,6.00
2022-08-05T03:40:45.304Z,6.22
2022-08-05T03:44:08.040Z,6.10
2022-08-05T03:46:03.958Z,5.88
2022-08-05T03:48:30.992Z,5.80
2022-08-05T03:52:37.822Z,6.30
2022-08-05T03:56:58.909Z,5.90
2022-08-05T03:59:47.262Z,5.60
2022-08-05T04:02:37.961Z,6.30
2022-08-05T04:05:12.965Z,6.55
2022-08-05T04:07:57.165Z,5.93
2022-08-05T04:10:33.249Z,6.15
2022-08-05T04:13:04.743Z,6.00
2022-08-05T04:15:32.953Z,6.20
2022-08-05T04:18:09.738Z,6.50
2022-08-05T04:20:38.606Z,7.88
2022-08-05T04:23:12.458Z,8.50
2022-08-05T04:25:57.715Z,9.07
2022-08-05T04:28:30.659Z,8.45
2022-08-05T04:31:01.094Z,8.88
2022-08-05T04:34:18.479Z,8.23
2022-08-05T04:36:45.872Z,10.40
2022-08-05T04:39:02.401Z,12.50
2022-08-05T04:41:36.575Z,12.60
2022-08-05T04:44:09.311Z,14.18
2022-08-05T04:46:36.791Z,13.20
2022-08-05T04:49:03.547Z,15.68
2022-08-05T04:51:30.416Z,15.98
2022-08-05T04:53:57.579Z,17.73
2022-08-05T04:56:34.628Z,16.83
2022-08-05T04:59:22.429Z,16.30
2022-08-05T05:02:07.625Z,16.85
2022-08-05T05:04:38.120Z,13.95
2022-08-05T05:07:05.313Z,12.85
2022-08-05T05:09:37.493Z,13.23
2022-08-05T05:12:05.255Z,12.45
2022-08-05T05:14:33.025Z,12.23
2022-08-05T05:17:03.572Z,12.60
2022-08-05T05:19:36.822Z,11.98
2022-08-05T05:22:22.661Z,12.02
2022-08-05T05:25:01.428Z,12.40
2022-08-05T05:27:48.579Z,11.70
2022-08-05T05:30:29.830Z,12.15
2022-08-05T05:33:00.548Z,12.30
2022-08-05T05:35:31.624Z,12.07
2022-08-05T05:38:06.407Z,12.50
2022-08-05T05:40:36.299Z,12.95
2022-08-05T05:43:03.262Z,13.52
2022-08-05T05:45:30.003Z,12.23
2022-08-05T05:48:07.140Z,12.48
2022-08-05T05:50:43.857Z,12.40
2022-08-05T05:53:21.123Z,12.60
2022-08-05T05:55:51.769Z,13.18
2022-08-05T05:58:30.257Z,13.23
2022-08-05T06:01:04.896Z,13.15
2022-08-05T06:04:01.199Z,13.38
2022-08-05T06:06:30.994Z,18.15
2022-08-05T06:09:00.414Z,18.02
2022-08-05T06:11:29.009Z,14.35
2022-08-05T06:13:56.301Z,13.38
2022-08-05T06:16:28.194Z,11.88
2022-08-05T06:19:01.198Z,12.68
2022-08-05T06:21:36.569Z,12.70
2022-08-05T06:24:11.989Z,13.07
2022-08-05T06:26:51.256Z,14.93
2022-08-05T06:29:43.206Z,24.60
2022-08-05T06:32:20.984Z,30.02
2022-08-05T06:34:48.617Z,27.23
2022-08-05T06:37:56.725Z,19.88
2022-08-05T06:40:07.498Z,15.50
2022-08-05T06:42:34.220Z,11.70
2022-08-05T06:45:05.291Z,9.45
2022-08-05T06:48:37.045Z,9.88
2022-08-05T06:50:19.797Z,8.10
2022-08-05T06:52:58.839Z,8.27
2022-08-05T06:55:36.422Z,8.55
2022-08-05T06:58:30.182Z,7.25
2022-08-05T07:00:50.988Z,7.10
2022-08-05T07:03:17.644Z,7.00
2022-08-05T07:05:46.367Z,6.90
2022-08-05T07:08:13.337Z,8.23
2022-08-05T07:10:53.364Z,7.43
2022-08-05T07:13:57.769Z,7.25
2022-08-05T07:17:58.471Z,5.55
2022-08-05T07:20:05.757Z,5.38
2022-08-05T07:22:17.828Z,6.53
2022-08-05T07:24:52.519Z,6.20
2022-08-05T07:27:20.333Z,6.03
2022-08-05T07:30:21.744Z,6.20
2022-08-05T07:32:36.864Z,5.85
2022-08-05T07:36:01.554Z,5.13
2022-08-05T07:37:57.748Z,5.88
2022-08-05T07:40:33.006Z,5.72
2022-08-05T07:43:04.675Z,5.13
2022-08-05T07:45:56.379Z,5.43
2022-08-05T07:49:00.634Z,5.00
2022-08-05T07:51:23.455Z,8.23
2022-08-05T07:53:59.250Z,4.57
2022-08-05T07:56:59.841Z,4.50
2022-08-05T07:59:15.398Z,3.95
2022-08-05T08:01:52.273Z,3.92
2022-08-05T08:04:38.144Z,3.85
2022-08-05T08:07:07.464Z,3.70
2022-08-05T08:09:37.544Z,3.35
2022-08-05T08:12:14.353Z,3.50
2022-08-05T08:14:47.808Z,3.35
2022-08-05T08:17:16.077Z,3.47
2022-08-05T08:20:20.973Z,3.47
2022-08-05T08:22:35.327Z,3.33
2022-08-05T08:25:03.413Z,3.40
2022-08-05T08:27:44.768Z,3.67
2022-08-05T08:30:29.918Z,3.53
2022-08-05T08:33:02.483Z,2.83
2022-08-05T08:35:34.791Z,3.22
2022-08-05T08:38:07.658Z,3.15
2022-08-05T08:40:35.299Z,3.60
2022-08-05T08:44:56.523Z,3.38
2022-08-05T08:45:53.114Z,3.42
2022-08-05T08:48:37.998Z,3.65
2022-08-05T08:52:02.121Z,3.75
2022-08-05T08:53:54.141Z,3.67
2022-08-05T08:56:22.183Z,4.10
2022-08-05T08:58:49.591Z,3.92
2022-08-05T09:01:19.146Z,4.30
2022-08-05T09:03:52.872Z,3.63
2022-08-05T09:06:24.280Z,4.13
2022-08-05T09:08:55.043Z,3.83
2022-08-05T09:11:51.090Z,3.95
2022-08-05T09:14:56.727Z,4.03
2022-08-05T09:16:59.927Z,3.83
2022-08-05T09:19:28.033Z,3.72
2022-08-05T09:22:23.457Z,3.92
2022-08-05T09:24:58.542Z,3.38
2022-08-05T09:28:05.496Z,3.80
2022-08-05T09:30:24.161Z,3.45
2022-08-05T09:32:51.612Z,3.47
2022-08-05T09:35:26.509Z,3.20
2022-08-05T09:38:17.020Z,3.50
2022-08-05T09:40:52.571Z,3.33
2022-08-05T09:43:41.277Z,3.22
2022-08-05T09:46:27.306Z,2.95
2022-08-05T09:49:06.771Z,3.40
2022-08-05T09:51:38.187Z,2.83
2022-08-05T09:54:08.535Z,3.30
2022-08-05T09:56:38.169Z,3.00
2022-08-05T09:59:07.237Z,2.83
2022-08-05T10:01:36.320Z,3.22
2022-08-05T10:04:13.781Z,3.45
2022-08-05T10:06:58.944Z,3.30
2022-08-05T10:09:29.552Z,3.22
2022-08-05T10:12:30.392Z,3.40
2022-08-05T10:15:20.137Z,4.28
2022-08-05T10:18:09.328Z,6.35
2022-08-05T10:20:41.796Z,4.90
2022-08-05T10:23:34.658Z,6.13
2022-08-05T10:26:00.025Z,6.75
2022-08-05T10:28:29.087Z,4.78
2022-08-05T10:32:53.300Z,4.20
2022-08-05T10:33:46.179Z,4.03
2022-08-05T10:36:23.448Z,4.68
2022-08-05T10:38:58.984Z,4.88
2022-08-05T10:41:46.496Z,5.20
2022-08-05T10:44:18.697Z,8.10
2022-08-05T10:46:51.029Z,4.95
2022-08-05T10:49:26.832Z,5.82
2022-08-05T10:52:00.312Z,6.05
2022-08-05T10:54:56.083Z,6.20
2022-08-05T10:57:29.409Z,6.68
2022-08-05T11:00:23.126Z,6.53
2022-08-05T11:02:59.035Z,6.05
2022-08-05T11:08:39.329Z,4.93
2022-08-05T11:11:52.836Z,5.38
2022-08-05T11:17:59.193Z,4.82
2022-08-05T11:20:36.740Z,4.50
2022-08-05T11:23:25.416Z,4.80
2022-08-05T11:26:11.965Z,4.60
2022-08-05T11:28:43.163Z,4.60
2022-08-05T11:31:10.247Z,4.53
2022-08-05T11:33:46.527Z,5.25
2022-08-05T11:36:52.790Z,5.15
2022-08-05T11:39:49.373Z,4.68
2022-08-05T11:42:24.180Z,4.90
2022-08-05T11:44:59.020Z,4.43
2022-08-05T11:47:49.951Z,4.00
2022-08-05T11:50:14.308Z,4.43
2022-08-05T11:52:41.674Z,5.40
2022-08-05T11:55:11.448Z,5.13
2022-08-05T11:58:10.385Z,5.40
2022-08-05T12:00:32.512Z,4.88
2022-08-05T12:03:28.586Z,4.88
2022-08-05T12:06:06.457Z,4.28
2022-08-05T12:08:49.754Z,4.45
2022-08-05T12:11:22.946Z,4.50
2022-08-05T12:13:58.737Z,4.40
2022-08-05T12:16:45.237Z,4.55
2022-08-05T12:20:26.398Z,4.38
2022-08-05T12:21:59.313Z,3.97
2022-08-05T12:24:28.019Z,4.72
2022-08-05T12:26:54.687Z,3.45
2022-08-05T12:29:26.937Z,3.08
2022-08-05T12:31:54.678Z,2.70
2022-08-05T12:34:26.755Z,3.17
2022-08-05T12:36:54.832Z,2.75
2022-08-05T12:39:28.182Z,2.60
2022-08-05T12:42:08.993Z,3.45
2022-08-05T12:44:35.903Z,2.97
2022-08-05T12:47:03.630Z,3.90
2022-08-05T12:50:02.017Z,3.13
2022-08-05T12:52:35.269Z,3.03
2022-08-05T12:55:25.536Z,2.75
2022-08-05T12:58:38.350Z,2.35
2022-08-05T13:01:59.713Z,2.78
2022-08-05T13:03:41.668Z,3.10
2022-08-05T13:06:16.362Z,3.40
2022-08-05T13:08:49.108Z,2.78
2022-08-05T13:11:57.963Z,2.17
2022-08-05T13:14:19.672Z,1.70
2022-08-05T13:16:57.601Z,1.60
2022-08-05T13:19:27.126Z,2.08
2022-08-05T13:22:14.080Z,1.70
2022-08-05T13:24:58.092Z,2.10
2022-08-05T13:27:37.718Z,2.47
2022-08-05T13:30:35.399Z,1.75
2022-08-05T13:32:54.208Z,2.03
2022-08-05T13:35:31.204Z,1.50
2022-08-05T13:38:11.529Z,1.90
2022-08-05T13:40:51.678Z,2.03
2022-08-05T13:43:22.006Z,1.80
2022-08-05T13:45:49.181Z,1.60
2022-08-05T13:48:58.484Z,1.83
2022-08-05T13:51:09.895Z,1.67
2022-08-05T13:53:48.058Z,1.70
2022-08-05T13:56:18.488Z,2.33
2022-08-05T13:58:53.342Z,1.73
2022-08-05T14:01:25.912Z,2.20
2022-08-05T14:04:38.816Z,1.77
2022-08-05T14:07:12.152Z,1.67
2022-08-05T14:09:52.405Z,1.58
2022-08-05T14:12:32.035Z,1.70
2022-08-05T14:15:05.959Z,1.90
2022-08-05T14:17:48.728Z,2.05
2022-08-05T14:20:17.485Z,1.25
2022-08-05T14:22:49.953Z,1.27
2022-08-05T14:25:22.005Z,1.30
2022-08-05T14:27:49.610Z,1.17
2022-08-05T14:30:20.249Z,1.63
2022-08-05T14:32:47.916Z,1.23
2022-08-05T14:35:14.589Z,1.27
2022-08-05T14:37:45.651Z,1.23
2022-08-05T14:40:16.897Z,1.20
2022-08-05T14:42:44.236Z,1.20
2022-08-05T14:45:13.647Z,1.13
2022-08-05T14:48:05.119Z,3.05
2022-08-05T14:50:31.057Z,1.10
2022-08-05T14:53:00.784Z,0.98
2022-08-05T14:55:28.563Z,0.77
2022-08-05T14:58:11.124Z,0.90
2022-08-05T15:00:39.792Z,1.05
2022-08-05T15:03:34.000Z,1.73
2022-08-05T15:06:08.410Z,1.00
2022-08-05T15:08:59.752Z,1.30
2022-08-05T15:11:51.828Z,1.13
2022-08-05T15:14:20.272Z,1.05
2022-08-05T15:17:01.170Z,0.90
2022-08-05T15:19:30.110Z,1.20
2022-08-05T15:21:57.993Z,0.80
2022-08-05T15:24:30.303Z,1.75
2022-08-05T15:27:01.259Z,0.90
2022-08-05T15:29:30.564Z,1.02
2022-08-05T15:32:09.015Z,1.10
2022-08-05T15:34:35.866Z,1.27
2022-08-05T15:37:06.828Z,1.17
2022-08-05T15:40:59.706Z,0.93
2022-08-05T15:42:50.065Z,0.90
2022-08-05T15:45:15.995Z,1.02
2022-08-05T15:47:43.571Z,1.00
2022-08-05T15:50:15.468Z,0.70
2022-08-05T15:52:52.886Z,0.95
2022-08-05T15:55:24.858Z,1.30
2022-08-05T15:58:08.035Z,1.17
2022-08-05T16:00:50.376Z,1.10
2022-08-05T16:03:21.467Z,1.17
2022-08-05T16:05:52.452Z,1.05
2022-08-05T16:08:19.492Z,1.17
2022-08-05T16:10:46.342Z,0.95
2022-08-05T16:13:19.393Z,1.08
2022-08-05T16:15:51.920Z,0.75
2022-08-05T16:18:18.911Z,1.30
2022-08-05T16:20:46.359Z,0.90
2022-08-05T16:23:13.101Z,0.98
2022-08-05T16:25:40.334Z,1.30
2022-08-05T16:28:09.790Z,1.10
2022-08-05T16:30:37.519Z,0.85
2022-08-05T16:33:04.575Z,1.60
2022-08-05T16:35:32.588Z,1.30
2022-08-05T16:38:16.394Z,0.88
2022-08-05T16:40:55.186Z,1.02
2022-08-05T16:43:30.250Z,1.10
2022-08-05T16:46:04.522Z,1.15
2022-08-05T16:48:36.385Z,1.17
2022-08-05T16:51:08.649Z,0.80
2022-08-05T16:54:05.212Z,0.90
2022-08-05T16:56:26.082Z,0.82
2022-08-05T16:58:52.846Z,0.82
2022-08-05T17:01:20.313Z,1.05
2022-08-05T17:03:47.442Z,1.10
2022-08-05T17:06:16.636Z,0.93
2022-08-05T17:08:53.189Z,1.00
2022-08-05T17:11:25.742Z,0.88
2022-08-05T17:14:00.509Z,1.02
2022-08-05T17:16:37.169Z,1.27
2022-08-05T17:19:09.354Z,1.17
2022-08-05T17:21:37.487Z,0.65
2022-08-05T17:24:18.450Z,0.85
2022-08-05T17:26:53.570Z,1.00
2022-08-05T17:29:32.840Z,2.92
2022-08-05T17:32:06.729Z,4.22
2022-08-05T17:34:35.407Z,0.65
2022-08-05T17:37:02.070Z,0.80
2022-08-05T17:39:34.733Z,4.78
2022-08-05T17:42:18.133Z,1.42
2022-08-05T17:44:50.465Z,0.77
2022-08-05T17:47:23.075Z,1.00
2022-08-05T17:50:04.102Z,2.50
2022-08-05T17:52:52.874Z,1.02
2022-08-05T17:55:22.474Z,1.55
2022-08-05T17:57:54.292Z,1.45
2022-08-05T18:00:20.966Z,1.00
2022-08-05T18:02:55.216Z,0.80
2022-08-05T18:05:22.060Z,2.85
2022-08-05T18:07:48.897Z,1.63
2022-08-05T18:10:21.177Z,1.65
2022-08-05T18:12:49.360Z,1.20
2022-08-05T18:15:16.217Z,1.30
2022-08-05T18:18:01.034Z,1.15
2022-08-05T18:20:31.940Z,0.82
2022-08-05T18:23:09.374Z,1.10
2022-08-05T18:25:38.895Z,0.80
2022-08-05T18:28:06.652Z,1.10
2022-08-05T18:30:34.434Z,1.58
2022-08-05T18:33:01.924Z,1.40
2022-08-05T18:35:59.804Z,1.58
2022-08-05T18:38:19.281Z,1.00
2022-08-05T18:41:53.172Z,1.40
2022-08-05T18:43:42.585Z,0.80
2022-08-05T18:46:10.090Z,1.00
2022-08-05T18:48:41.687Z,0.80
2022-08-05T18:52:06.809Z,1.15
2022-08-05T18:54:14.656Z,1.38
2022-08-05T18:56:41.886Z,1.30
2022-08-05T18:59:43.808Z,3.35
2022-08-05T19:02:04.925Z,1.02
2022-08-05T19:05:02.560Z,1.10
2022-08-05T19:07:45.302Z,0.80
2022-08-05T19:10:13.536Z,1.13
2022-08-05T19:12:40.489Z,1.20
2022-08-05T19:15:36.753Z,2.40
2022-08-05T19:18:10.325Z,1.20
2022-08-05T19:20:41.401Z,1.40
2022-08-05T19:24:06.053Z,1.75
2022-08-05T19:26:01.084Z,1.35
2022-08-05T19:28:30.810Z,1.70
2022-08-05T19:30:57.703Z,1.42
2022-08-05T19:33:34.002Z,1.30
2022-08-05T19:36:06.067Z,2.25
2022-08-05T19:38:36.774Z,1.40
2022-08-05T19:41:09.057Z,1.10
2022-08-05T19:44:06.850Z,1.30
2022-08-05T19:46:29.446Z,1.10
2022-08-05T19:49:02.869Z,1.35
2022-08-05T19:51:56.447Z,1.10
2022-08-05T19:54:21.670Z,1.50
2022-08-05T19:56:54.272Z,1.10
2022-08-05T19:59:53.973Z,1.13
2022-08-05T20:02:10.693Z,1.10
2022-08-05T20:04:38.026Z,1.40
2022-08-05T20:07:13.382Z,1.10
2022-08-05T20:09:54.602Z,1.20
2022-08-05T20:12:24.906Z,1.20
2022-08-05T20:14:52.844Z,0.98
2022-08-05T20:17:23.453Z,1.40
2022-08-05T20:19:51.979Z,1.38
2022-08-05T20:22:26.763Z,1.30
2022-08-05T20:24:54.851Z,1.50
2022-08-05T20:27:26.802Z,1.05
2022-08-05T20:29:58.531Z,1.55
2022-08-05T20:32:27.173Z,1.05
2022-08-05T20:34:54.652Z,1.23
2022-08-05T20:38:06.742Z,1.20
2022-08-05T20:40:09.706Z,1.25
2022-08-05T20:42:36.491Z,1.20
2022-08-05T20:45:04.515Z,1.40
2022-08-05T20:47:33.274Z,1.83
2022-08-05T20:50:01.955Z,1.50
2022-08-05T20:52:29.956Z,1.63
2022-08-05T20:55:55.201Z,1.63
2022-08-05T20:57:44.989Z,1.48
2022-08-05T21:00:34.996Z,1.60
2022-08-05T21:03:07.345Z,1.75
2022-08-05T21:05:48.199Z,4.55
2022-08-05T21:08:26.780Z,2.20
2022-08-05T21:11:09.046Z,1.88
2022-08-05T21:14:02.250Z,1.90
2022-08-05T21:16:30.884Z,1.40
2022-08-05T21:19:01.742Z,3.53
2022-08-05T21:21:38.805Z,3.40
2022-08-05T21:24:12.720Z,1.52
2022-08-05T21:26:41.462Z,1.30
2022-08-05T21:29:12.647Z,1.15
2022-08-05T21:31:46.579Z,1.10
2022-08-05T21:34:17.744Z,1.48
2022-08-05T21:36:49.083Z,0.98
2022-08-05T21:39:16.978Z,1.52
2022-08-05T21:42:01.211Z,1.40
2022-08-05T21:44:31.092Z,1.23
2022-08-05T21:47:01.753Z,1.52
2022-08-05T21:50:00.092Z,1.23
2022-08-05T21:52:27.695Z,1.40
2022-08-05T21:54:57.124Z,1.45
2022-08-05T21:57:32.653Z,1.50
2022-08-05T22:00:06.116Z,1.30
2022-08-05T22:02:43.030Z,1.38
2022-08-05T22:05:11.708Z,1.50
2022-08-05T22:07:59.546Z,5.32
2022-08-05T22:10:31.058Z,2.22
2022-08-05T22:13:08.820Z,2.50
2022-08-05T22:16:01.813Z,1.50
2022-08-05T22:18:25.617Z,1.80
2022-08-05T22:20:53.206Z,1.70
2022-08-05T22:24:00.824Z,1.60
2022-08-05T22:26:50.016Z,1.50
2022-08-05T22:29:26.867Z,1.40
2022-08-05T22:31:59.715Z,4.40
2022-08-05T22:34:31.302Z,4.22
2022-08-05T22:36:59.310Z,2.17
2022-08-05T22:39:33.252Z,1.52
2022-08-05T22:42:11.799Z,1.75
2022-08-05T22:44:48.552Z,1.73
2022-08-05T22:47:30.107Z,1.95
2022-08-05T22:52:45.750Z,2.17
2022-08-05T22:55:19.103Z,2.10
2022-08-05T22:57:49.017Z,2.10
2022-08-05T23:00:17.885Z,1.90
2022-08-05T23:02:48.134Z,1.55
2022-08-05T23:05:16.189Z,1.50
2022-08-05T23:07:48.673Z,1.80
2022-08-05T23:10:20.305Z,1.70
2022-08-05T23:12:55.183Z,1.70
2022-08-05T23:15:29.419Z,1.92
2022-08-05T23:18:03.621Z,1.55
2022-08-05T23:20:37.525Z,1.85
2022-08-05T23:23:08.024Z,1.83
2022-08-05T23:25:52.961Z,1.60
2022-08-05T23:28:27.684Z,1.75
2022-08-05T23:31:16.062Z,1.60
2022-08-05T23:34:03.764Z,2.10
2022-08-05T23:36:38.443Z,1.55
2022-08-05T23:39:05.741Z,2.00
2022-08-05T23:41:41.113Z,2.15
2022-08-05T23:44:16.613Z,1.77
2022-08-05T23:46:43.831Z,1.40
2022-08-05T23:49:16.116Z,1.77
2022-08-05T23:52:05.766Z,1.90
2022-08-05T23:54:38.084Z,1.73
2022-08-05T23:57:06.030Z,1.60
2022-08-05T23:59:37.620Z,1.70
